CPA7 weather

Meaford (General Hospital) Heliport
Meaford, Ontario, Canada

Public forecast

Using degrees Celsius for public forecast. Weather courtesy of forecast.io.

METAR (pilot weather report)

Closest report is Wiarton Airport, 23.2 nm (43.1 km) WNW. Retrieved 2019/05/22 11:00 UTC (21 minutes ago):

CYVV 221100Z 11006KT 15SM SCT060 BKN120 BKN180 10/04 A3019 RMK SC4AC1AS2 SLP229

TAF (pilot weather forecast)

Forecast is more than 12 hours old.

Closest forecast is Wiarton Airport, 23.2 nm (43.1 km) WNW. Retrieved 2019/05/21 20:00 UTC (15 hours ago):

TAF CYVV 211938Z 2120/2123 35006KT P6SM FEW250 BECMG 2122/2123 VRB03KT RMK NXT FCST WILL BE ISSUED AT 221045Z